createdAt,value
2022-12-08T00:02:16.199Z,99203.91
2022-12-08T00:07:38.095Z,99205.48
2022-12-08T00:12:40.945Z,99201.69
2022-12-08T00:17:43.645Z,99203.14
2022-12-08T00:22:46.344Z,99201.93
2022-12-08T00:27:49.150Z,99207.16
2022-12-08T00:32:51.872Z,99216.45
2022-12-08T00:38:00.431Z,99225.33
2022-12-08T00:43:03.650Z,99230.14
2022-12-08T00:48:07.327Z,99243.72
2022-12-08T00:53:10.114Z,99245.10
2022-12-08T00:58:13.221Z,99252.92
2022-12-08T01:03:16.003Z,99265.08
2022-12-08T01:08:18.844Z,99266.02
2022-12-08T01:13:22.033Z,99263.73
2022-12-08T01:18:24.927Z,99261.30
2022-12-08T01:23:28.563Z,99265.83
2022-12-08T01:28:32.158Z,99276.28
2022-12-08T01:33:34.880Z,99280.98
2022-12-08T01:38:37.680Z,99277.31
2022-12-08T01:43:55.119Z,99282.46
2022-12-08T01:49:18.102Z,99290.44
2022-12-08T01:54:24.986Z,99288.11
2022-12-08T01:59:28.823Z,99292.10
2022-12-08T02:04:31.630Z,99292.98
2022-12-08T02:09:36.662Z,99296.71
2022-12-08T02:14:39.876Z,99297.61
2022-12-08T02:20:10.379Z,99295.16
2022-12-08T02:25:39.458Z,99297.40
2022-12-08T02:31:07.184Z,99300.46
2022-12-08T02:36:31.286Z,99302.43
2022-12-08T02:41:56.881Z,99308.52
2022-12-08T02:47:06.325Z,99315.07
2022-12-08T02:52:12.141Z,99318.36
2022-12-08T02:57:59.413Z,99317.52
2022-12-08T03:03:29.392Z,99331.48
2022-12-08T03:08:51.343Z,99335.09
2022-12-08T03:13:59.150Z,99344.67
2022-12-08T03:19:10.134Z,99341.22
2022-12-08T03:24:15.078Z,99343.95
2022-12-08T03:29:18.116Z,99349.01
2022-12-08T03:34:23.459Z,99351.17
2022-12-08T03:39:26.276Z,99356.39
2022-12-08T03:44:28.980Z,99365.54
2022-12-08T03:49:31.686Z,99374.95
2022-12-08T03:54:34.377Z,99377.20
2022-12-08T03:59:37.147Z,99377.52
2022-12-08T04:04:40.079Z,99379.40
2022-12-08T04:09:42.982Z,99386.36
2022-12-08T04:14:45.668Z,99387.69
2022-12-08T04:19:48.381Z,99390.83
2022-12-08T04:24:51.068Z,99396.90
2022-12-08T04:29:53.766Z,99395.39
2022-12-08T04:34:56.461Z,99400.02
2022-12-08T04:39:59.160Z,99404.59
2022-12-08T04:45:02.060Z,99405.66
2022-12-08T04:50:06.484Z,99414.65
2022-12-08T04:55:09.617Z,99417.11
2022-12-08T05:00:13.738Z,99424.32
2022-12-08T05:05:16.560Z,99424.84
2022-12-08T05:10:19.272Z,99426.65
2022-12-08T05:15:21.969Z,99427.25
2022-12-08T05:20:24.760Z,99431.36
2022-12-08T05:25:27.465Z,99436.70
2022-12-08T05:30:30.266Z,99441.55
2022-12-08T05:35:32.937Z,99443.43
2022-12-08T05:40:38.946Z,99443.57
2022-12-08T05:45:41.763Z,99447.83
2022-12-08T05:50:49.132Z,99449.74
2022-12-08T05:55:51.836Z,99455.70
2022-12-08T06:00:54.833Z,99456.73
2022-12-08T06:05:58.009Z,99463.90
2022-12-08T06:11:00.998Z,99470.77
2022-12-08T06:16:07.436Z,99474.16
2022-12-08T06:21:13.028Z,99479.79
2022-12-08T06:26:17.254Z,99485.23
2022-12-08T06:31:22.904Z,99487.45
2022-12-08T06:36:28.099Z,99490.86
2022-12-08T06:41:30.882Z,99496.84
2022-12-08T06:46:33.734Z,99498.50
2022-12-08T06:51:36.642Z,99498.88
2022-12-08T06:56:39.449Z,99505.52
2022-12-08T07:01:42.206Z,99514.88
2022-12-08T07:06:45.109Z,99524.32
2022-12-08T07:11:47.986Z,99536.03
2022-12-08T07:16:52.297Z,99537.38
2022-12-08T07:21:55.156Z,99541.45
2022-12-08T07:26:57.829Z,99543.45
2022-12-08T07:32:00.612Z,99552.16
2022-12-08T07:37:03.546Z,99562.47
2022-12-08T07:42:06.552Z,99570.61
2022-12-08T07:47:09.525Z,99576.57
2022-12-08T07:52:12.455Z,99580.64
2022-12-08T07:57:15.548Z,99587.67
2022-12-08T08:02:26.909Z,99588.16
2022-12-08T08:07:31.254Z,99591.61
2022-12-08T08:12:34.109Z,99589.02
2022-12-08T08:17:37.866Z,99589.65
2022-12-08T08:22:40.664Z,99594.46
2022-12-08T08:27:44.006Z,99595.70
2022-12-08T08:32:46.893Z,99600.23
2022-12-08T08:37:49.808Z,99606.32
2022-12-08T08:42:52.956Z,99619.90
2022-12-08T08:47:55.757Z,99622.27
2022-12-08T08:52:58.474Z,99627.49
2022-12-08T08:58:01.259Z,99629.03
2022-12-08T09:03:04.147Z,99628.89
2022-12-08T09:08:07.190Z,99630.48
2022-12-08T09:13:09.945Z,99636.36
2022-12-08T09:18:12.786Z,99641.48
2022-12-08T09:23:15.569Z,99638.64
2022-12-08T09:28:18.482Z,99642.02
2022-12-08T09:33:21.164Z,99641.86
2022-12-08T09:38:23.972Z,99643.58
2022-12-08T09:44:01.386Z,99644.77
2022-12-08T09:49:05.523Z,99645.64
2022-12-08T09:54:34.321Z,99638.93
2022-12-08T09:59:37.152Z,99635.38
2022-12-08T10:04:41.295Z,99634.89
2022-12-08T10:10:04.439Z,99629.58
2022-12-08T10:15:42.027Z,99630.55
2022-12-08T10:20:48.171Z,99623.94
2022-12-08T10:26:00.372Z,99622.90
2022-12-08T10:31:04.090Z,99626.27
2022-12-08T10:36:07.293Z,99620.85
2022-12-08T10:41:10.116Z,99617.95
2022-12-08T10:46:17.343Z,99618.78
2022-12-08T10:51:27.082Z,99618.52
2022-12-08T10:56:31.223Z,99621.96
2022-12-08T11:01:39.145Z,99615.33
2022-12-08T11:06:42.829Z,99616.25
2022-12-08T11:11:48.076Z,99607.58
2022-12-08T11:16:53.721Z,99600.11
2022-12-08T11:21:56.597Z,99588.94
2022-12-08T11:27:04.453Z,99586.79
2022-12-08T11:32:16.005Z,99582.30
2022-12-08T11:37:40.121Z,99578.17
2022-12-08T11:43:24.445Z,99570.89
2022-12-08T11:48:31.532Z,99558.98
2022-12-08T11:53:41.545Z,99561.16
2022-12-08T11:58:56.720Z,99553.02
2022-12-08T12:04:21.703Z,99554.36
2022-12-08T12:09:39.825Z,99546.93
2022-12-08T12:14:45.274Z,99538.34
2022-12-08T12:19:50.001Z,99532.67
2022-12-08T12:24:53.163Z,99532.09
2022-12-08T12:30:00.834Z,99529.09
2022-12-08T12:35:04.952Z,99522.15
2022-12-08T12:40:23.947Z,99509.65
2022-12-08T12:45:34.362Z,99500.05
2022-12-08T12:50:52.079Z,99498.46
2022-12-08T12:55:56.210Z,99490.66
2022-12-08T13:01:21.495Z,99494.45
2022-12-08T13:06:38.008Z,99486.45
2022-12-08T13:11:55.002Z,99490.20
2022-12-08T13:17:01.419Z,99484.55
2022-12-08T13:22:24.477Z,99488.33
2022-12-08T13:27:34.190Z,99484.14
2022-12-08T13:38:22.741Z,99474.86
2022-12-08T13:43:34.037Z,99478.02
2022-12-08T13:50:36.636Z,99474.05
2022-12-08T13:55:19.694Z,99476.29
2022-12-08T13:59:53.553Z,99473.61
2022-12-08T14:10:27.246Z,99479.58
2022-12-08T14:15:37.609Z,99472.90
2022-12-08T14:21:19.039Z,99471.27
2022-12-08T14:26:06.078Z,99467.94
2022-12-08T14:31:09.289Z,99470.71
2022-12-08T14:36:15.798Z,99460.95
2022-12-08T14:41:27.154Z,99463.42
2022-12-08T14:46:30.022Z,99464.98
2022-12-08T14:51:33.434Z,99465.13
2022-12-08T14:56:39.745Z,99464.56
2022-12-08T15:01:43.692Z,99464.41
2022-12-08T15:07:01.282Z,99465.98
2022-12-08T15:12:26.358Z,99466.23
2022-12-08T15:17:49.075Z,99461.84
2022-12-08T15:22:53.024Z,99467.32
2022-12-08T15:27:58.660Z,99474.30
2022-12-08T15:33:01.412Z,99476.96
2022-12-08T15:38:05.259Z,99475.12
2022-12-08T15:43:11.463Z,99474.05
2022-12-08T15:48:23.094Z,99473.68
2022-12-08T15:53:26.099Z,99470.04
2022-12-08T15:58:52.879Z,99469.38
2022-12-08T16:09:31.248Z,99473.61
2022-12-08T16:15:39.861Z,99475.98
2022-12-08T16:19:57.335Z,99472.40
2022-12-08T16:25:14.773Z,99470.64
2022-12-08T16:30:21.662Z,99467.33
2022-12-08T16:35:24.357Z,99472.23
2022-12-08T16:40:27.437Z,99475.05
2022-12-08T16:45:30.419Z,99471.98
2022-12-08T16:50:35.201Z,99475.27
2022-12-08T16:55:38.786Z,99467.01
2022-12-08T17:00:41.875Z,99465.66
2022-12-08T17:05:44.793Z,99460.99
2022-12-08T17:11:07.422Z,99466.13
2022-12-08T17:16:14.213Z,99463.05
2022-12-08T17:21:18.466Z,99466.23
2022-12-08T17:26:21.226Z,99461.30
2022-12-08T17:31:29.374Z,99473.62
2022-12-08T17:36:32.816Z,99473.27
2022-12-08T17:41:35.570Z,99473.92
2022-12-08T17:46:41.715Z,99472.54
2022-12-08T17:51:50.946Z,99473.62
2022-12-08T17:56:55.048Z,99469.56
2022-12-08T18:01:58.918Z,99462.68
2022-12-08T18:07:03.510Z,99458.15
2022-12-08T18:12:06.510Z,99454.36
2022-12-08T18:17:09.275Z,99448.64
2022-12-08T18:22:12.560Z,99451.54
2022-12-08T18:27:15.401Z,99449.07
2022-12-08T18:32:18.634Z,99440.65
2022-12-08T18:37:21.435Z,99431.76
2022-12-08T18:42:24.241Z,99418.90
2022-12-08T18:47:26.937Z,99417.06
2022-12-08T18:52:32.224Z,99408.29
2022-12-08T18:57:39.945Z,99426.88
2022-12-08T19:02:42.995Z,99424.25
2022-12-08T19:07:46.598Z,99420.44
2022-12-08T19:12:51.042Z,99420.71
2022-12-08T19:17:53.781Z,99416.73
2022-12-08T19:22:56.581Z,99417.64
2022-12-08T19:27:59.295Z,99421.01
2022-12-08T19:33:01.996Z,99419.59
2022-12-08T19:38:05.087Z,99415.54
2022-12-08T19:43:35.037Z,99412.20
2022-12-08T19:48:37.752Z,99411.00
2022-12-08T19:53:47.377Z,99412.46
2022-12-08T19:58:50.707Z,99408.08
2022-12-08T20:03:53.800Z,99404.48
2022-12-08T20:08:56.661Z,99409.31
2022-12-08T20:13:59.492Z,99410.99
2022-12-08T20:19:03.105Z,99409.51
2022-12-08T20:24:06.648Z,99405.64
2022-12-08T20:29:09.565Z,99406.12
2022-12-08T20:34:16.977Z,99410.27
2022-12-08T20:39:19.777Z,99415.20
2022-12-08T20:44:22.801Z,99422.44
2022-12-08T20:49:28.523Z,99426.98
2022-12-08T20:54:37.064Z,99430.42
2022-12-08T20:59:40.087Z,99430.09
2022-12-08T21:04:43.049Z,99431.59
2022-12-08T21:09:46.050Z,99434.60
2022-12-08T21:14:48.909Z,99435.17
2022-12-08T21:19:51.687Z,99442.48
2022-12-08T21:24:54.476Z,99451.60
2022-12-08T21:29:57.151Z,99459.44
2022-12-08T21:34:59.905Z,99462.20
2022-12-08T21:40:03.195Z,99465.58
2022-12-08T21:45:06.810Z,99470.23
2022-12-08T21:50:11.451Z,99472.09
2022-12-08T21:55:16.981Z,99471.27
2022-12-08T22:00:20.952Z,99474.30
2022-12-08T22:05:24.411Z,99471.11
2022-12-08T22:10:27.132Z,99472.92
2022-12-08T22:15:30.355Z,99476.91
2022-12-08T22:20:33.170Z,99476.91
2022-12-08T22:25:36.140Z,99480.41
2022-12-08T22:30:39.706Z,99482.04
2022-12-08T22:35:42.737Z,99488.04
2022-12-08T22:40:45.751Z,99485.12
2022-12-08T22:45:48.992Z,99490.61
2022-12-08T22:50:59.692Z,99491.64
2022-12-08T22:56:10.989Z,99494.87
2022-12-08T23:01:26.155Z,99497.02
2022-12-08T23:06:30.861Z,99503.20
2022-12-08T23:11:33.781Z,99503.95
2022-12-08T23:16:37.124Z,99501.77
2022-12-08T23:21:40.319Z,99506.02
2022-12-08T23:26:43.406Z,99498.80
2022-12-08T23:31:46.381Z,99494.98
2022-12-08T23:36:49.861Z,99502.33
2022-12-08T23:41:52.947Z,99507.02
2022-12-08T23:46:56.101Z,99511.02
2022-12-08T23:51:59.385Z,99517.05
2022-12-08T23:57:02.097Z,99510.42
